createdAt,value
2023-10-28T00:00:40.583Z,10.73
2023-10-28T00:01:40.528Z,10.66
2023-10-28T00:02:40.422Z,10.71
2023-10-28T00:03:40.354Z,10.66
2023-10-28T00:04:40.400Z,10.59
2023-10-28T00:05:40.166Z,10.63
2023-10-28T00:06:40.084Z,10.60
2023-10-28T00:07:40.050Z,10.58
2023-10-28T00:08:39.919Z,10.58
2023-10-28T00:09:39.937Z,10.55
2023-10-28T00:10:39.801Z,10.56
2023-10-28T00:11:39.681Z,10.56
2023-10-28T00:12:39.594Z,10.59
2023-10-28T00:13:39.540Z,10.51
2023-10-28T00:14:39.430Z,10.60
2023-10-28T00:15:39.367Z,10.58
2023-10-28T00:16:39.277Z,10.55
2023-10-28T00:17:39.216Z,10.62
2023-10-28T00:18:39.104Z,10.63
2023-10-28T00:19:39.050Z,10.62
2023-10-28T00:20:38.944Z,10.56
2023-10-28T00:21:38.868Z,10.51
2023-10-28T00:22:38.811Z,10.71
2023-10-28T00:23:38.697Z,10.73
2023-10-28T00:24:38.622Z,10.67
2023-10-28T00:25:38.665Z,10.59
2023-10-28T00:26:38.457Z,10.53
2023-10-28T00:27:38.378Z,10.55
2023-10-28T00:28:38.304Z,10.58
2023-10-28T00:29:38.338Z,10.62
2023-10-28T00:30:38.134Z,10.58
2023-10-28T00:31:38.078Z,10.59
2023-10-28T00:32:38.026Z,10.58
2023-10-28T00:33:37.887Z,10.65
2023-10-28T00:34:37.823Z,10.67
2023-10-28T00:35:37.737Z,10.56
2023-10-28T00:36:37.638Z,10.60
2023-10-28T00:37:37.613Z,10.60
2023-10-28T00:38:37.489Z,10.63
2023-10-28T00:39:37.397Z,10.56
2023-10-28T00:40:37.319Z,10.58
2023-10-28T00:41:37.237Z,10.53
2023-10-28T00:42:37.151Z,10.58
2023-10-28T00:43:37.088Z,10.58
2023-10-28T00:44:36.987Z,10.55
2023-10-28T00:45:36.934Z,10.49
2023-10-28T00:46:36.864Z,10.46
2023-10-28T00:47:36.766Z,10.51
2023-10-28T00:48:36.669Z,10.43
2023-10-28T00:49:36.607Z,10.41
2023-10-28T00:50:36.501Z,10.39
2023-10-28T00:51:36.419Z,10.43
2023-10-28T00:52:36.360Z,10.44
2023-10-28T00:53:36.254Z,10.37
2023-10-28T00:54:36.178Z,10.43
2023-10-28T00:55:36.120Z,10.39
2023-10-28T00:56:36.009Z,10.39
2023-10-28T00:57:35.938Z,10.34
2023-10-28T00:58:36.086Z,10.43
2023-10-28T00:59:35.765Z,10.43
2023-10-28T01:00:35.682Z,10.40
2023-10-28T01:01:35.616Z,10.40
2023-10-28T01:02:35.571Z,10.41
2023-10-28T01:03:35.548Z,10.43
2023-10-28T01:04:35.444Z,10.41
2023-10-28T01:05:35.866Z,10.41
2023-10-28T01:06:35.195Z,10.39
2023-10-28T01:07:35.149Z,10.41
2023-10-28T01:08:35.084Z,10.51
2023-10-28T01:09:34.952Z,10.56
2023-10-28T01:10:34.998Z,10.51
2023-10-28T01:11:34.794Z,10.51
2023-10-28T01:12:34.705Z,10.51
2023-10-28T01:13:34.633Z,10.51
2023-10-28T01:14:34.550Z,10.59
2023-10-28T01:15:34.487Z,10.59
2023-10-28T01:16:34.381Z,10.56
2023-10-28T01:17:34.392Z,10.58
2023-10-28T01:18:34.295Z,10.62
2023-10-28T01:19:34.141Z,10.58
2023-10-28T01:20:34.098Z,10.59
2023-10-28T01:21:33.973Z,10.55
2023-10-28T01:22:33.893Z,10.51
2023-10-28T01:23:33.814Z,10.55
2023-10-28T01:24:33.738Z,10.49
2023-10-28T01:25:33.648Z,10.43
2023-10-28T01:26:33.563Z,10.47
2023-10-28T01:27:33.494Z,10.43
2023-10-28T01:28:33.401Z,10.40
2023-10-28T01:29:33.412Z,10.43
2023-10-28T01:30:33.244Z,10.47
2023-10-28T01:31:33.175Z,10.44
2023-10-28T01:32:33.094Z,10.49
2023-10-28T01:33:32.995Z,10.51
2023-10-28T01:34:32.918Z,10.47
2023-10-28T01:35:32.879Z,10.44
2023-10-28T01:36:32.749Z,10.40
2023-10-28T01:37:32.670Z,10.47
2023-10-28T01:38:32.586Z,10.47
2023-10-28T01:39:32.516Z,10.55
2023-10-28T01:40:32.447Z,10.56
2023-10-28T01:41:32.345Z,10.46
2023-10-28T01:42:32.273Z,10.41
2023-10-28T01:43:32.183Z,10.46
2023-10-28T01:44:32.100Z,10.46
2023-10-28T01:45:32.151Z,10.40
2023-10-28T01:46:31.941Z,10.46
2023-10-28T01:47:31.878Z,10.43
2023-10-28T01:48:31.785Z,10.47
2023-10-28T01:49:31.702Z,10.44
2023-10-28T01:50:31.612Z,10.41
2023-10-28T01:51:31.531Z,10.41
2023-10-28T01:52:31.448Z,10.40
2023-10-28T01:53:31.380Z,10.40
2023-10-28T01:54:31.287Z,10.34
2023-10-28T01:55:31.214Z,10.40
2023-10-28T01:56:31.122Z,10.39
2023-10-28T01:57:31.047Z,10.31
2023-10-28T01:58:30.956Z,10.26
2023-10-28T01:59:30.884Z,10.34
2023-10-28T02:00:30.793Z,10.34
2023-10-28T02:01:30.858Z,10.28
2023-10-28T02:02:30.710Z,10.41
2023-10-28T02:03:30.618Z,10.29
2023-10-28T02:04:30.469Z,10.34
2023-10-28T02:05:30.391Z,10.40
2023-10-28T02:06:30.308Z,10.40
2023-10-28T02:07:30.238Z,10.36
2023-10-28T02:08:30.144Z,10.36
2023-10-28T02:09:30.078Z,10.40
2023-10-28T02:10:29.990Z,10.40
2023-10-28T02:11:29.901Z,10.33
2023-10-28T02:12:29.819Z,10.36
2023-10-28T02:13:29.737Z,10.37
2023-10-28T02:14:29.658Z,10.40
2023-10-28T02:15:29.599Z,10.34
2023-10-28T02:16:29.490Z,10.33
2023-10-28T02:17:29.531Z,10.43
2023-10-28T02:18:29.327Z,10.41
2023-10-28T02:19:29.246Z,10.31
2023-10-28T02:20:29.170Z,10.41
2023-10-28T02:21:29.079Z,10.46
2023-10-28T02:22:28.999Z,10.44
2023-10-28T02:23:28.922Z,10.46
2023-10-28T02:24:28.852Z,10.43
2023-10-28T02:25:28.761Z,10.53
2023-10-28T02:26:28.675Z,10.56
2023-10-28T02:27:28.608Z,10.53
2023-10-28T02:28:28.515Z,10.51
2023-10-28T02:29:28.431Z,10.55
2023-10-28T02:30:28.349Z,10.53
2023-10-28T02:31:28.305Z,10.51
2023-10-28T02:32:28.437Z,10.58
2023-10-28T02:33:28.257Z,10.51
2023-10-28T02:34:28.023Z,10.41
2023-10-28T02:35:27.956Z,10.51
2023-10-28T02:36:27.866Z,10.51
2023-10-28T02:37:27.775Z,10.49
2023-10-28T02:38:27.697Z,10.60
2023-10-28T02:39:27.619Z,10.55
2023-10-28T02:40:27.533Z,10.53
2023-10-28T02:41:27.453Z,10.58
2023-10-28T02:42:27.368Z,10.49
2023-10-28T02:43:27.287Z,10.51
2023-10-28T02:44:27.210Z,10.62
2023-10-28T02:45:27.173Z,10.56
2023-10-28T02:46:27.885Z,10.62
2023-10-28T02:47:28.262Z,10.49
2023-10-28T02:48:26.882Z,10.51
2023-10-28T02:49:26.890Z,10.55
2023-10-28T02:50:26.718Z,10.55
2023-10-28T02:51:26.633Z,10.56
2023-10-28T02:52:26.558Z,10.53
2023-10-28T02:53:26.475Z,10.51
2023-10-28T02:54:26.393Z,10.47
2023-10-28T02:55:26.326Z,10.46
2023-10-28T02:56:26.227Z,10.62
2023-10-28T02:57:26.146Z,10.51
2023-10-28T02:58:26.064Z,10.58
2023-10-28T02:59:25.982Z,10.55
2023-10-28T03:00:25.901Z,10.63
2023-10-28T03:01:25.855Z,10.51
2023-10-28T03:02:25.795Z,10.44
2023-10-28T03:03:25.815Z,10.51
2023-10-28T03:04:25.582Z,10.41
2023-10-28T03:05:25.590Z,10.43
2023-10-28T03:06:25.412Z,10.43
2023-10-28T03:07:25.365Z,10.44
2023-10-28T03:08:25.251Z,10.47
2023-10-28T03:09:25.225Z,10.43
2023-10-28T03:10:25.084Z,10.47
2023-10-28T03:11:25.006Z,10.47
2023-10-28T03:12:24.922Z,10.46
2023-10-28T03:13:24.844Z,10.53
2023-10-28T03:14:24.774Z,10.51
2023-10-28T03:15:24.710Z,10.58
2023-10-28T03:16:24.636Z,10.63
2023-10-28T03:17:24.513Z,10.63
2023-10-28T03:18:24.440Z,10.63
2023-10-28T03:19:24.349Z,10.58
2023-10-28T03:20:24.268Z,10.49
2023-10-28T03:21:24.182Z,10.59
2023-10-28T03:22:24.115Z,10.43
2023-10-28T03:23:24.029Z,10.56
2023-10-28T03:24:23.943Z,10.66
2023-10-28T03:25:23.860Z,10.56
2023-10-28T03:26:23.789Z,10.59
2023-10-28T03:27:23.713Z,10.56
2023-10-28T03:28:23.634Z,10.56
2023-10-28T03:29:23.538Z,10.49
2023-10-28T03:30:23.455Z,10.53
2023-10-28T03:31:25.268Z,10.51
2023-10-28T03:32:23.330Z,10.41
2023-10-28T03:33:23.232Z,10.49
2023-10-28T03:34:23.131Z,10.59
2023-10-28T03:35:23.044Z,10.56
2023-10-28T03:36:22.972Z,10.62
2023-10-28T03:37:22.887Z,10.58
2023-10-28T03:38:22.801Z,10.56
2023-10-28T03:39:22.726Z,10.56
2023-10-28T03:40:22.639Z,10.65
2023-10-28T03:41:22.555Z,10.53
2023-10-28T03:42:22.475Z,10.51
2023-10-28T03:43:22.391Z,10.56
2023-10-28T03:44:22.310Z,10.58
2023-10-28T03:45:22.231Z,10.60
2023-10-28T03:46:22.207Z,10.55
2023-10-28T03:47:22.115Z,10.51
2023-10-28T03:48:21.986Z,10.53
2023-10-28T03:49:21.903Z,10.53
2023-10-28T03:50:21.820Z,10.53
2023-10-28T03:51:21.740Z,10.59
2023-10-28T03:52:21.658Z,10.56
2023-10-28T03:53:21.584Z,10.65
2023-10-28T03:54:21.498Z,10.59
2023-10-28T03:55:21.413Z,10.66
2023-10-28T03:56:21.336Z,10.73
2023-10-28T03:57:21.258Z,10.73
2023-10-28T03:58:21.170Z,10.63
2023-10-28T03:59:21.088Z,10.69
2023-10-28T04:00:21.005Z,10.69
2023-10-28T04:01:20.949Z,10.77
2023-10-28T04:02:20.857Z,10.83
2023-10-28T04:03:20.784Z,10.74
2023-10-28T04:04:20.680Z,10.80
2023-10-28T04:05:20.638Z,10.67
2023-10-28T04:06:20.517Z,10.75
2023-10-28T04:07:20.435Z,10.63
2023-10-28T04:08:20.401Z,10.66
2023-10-28T04:09:20.354Z,10.56
2023-10-28T04:10:20.196Z,10.63
2023-10-28T04:11:20.105Z,10.74
2023-10-28T04:12:20.026Z,10.66
2023-10-28T04:13:20.913Z,10.74
2023-10-28T04:14:19.910Z,10.67
2023-10-28T04:15:19.783Z,10.77
2023-10-28T04:16:19.712Z,10.74
2023-10-28T04:17:19.615Z,10.83
2023-10-28T04:18:19.534Z,10.78
2023-10-28T04:19:19.451Z,10.74
2023-10-28T04:20:19.450Z,10.77
2023-10-28T04:21:19.286Z,10.73
2023-10-28T04:22:19.210Z,10.83
2023-10-28T04:23:19.163Z,10.69
2023-10-28T04:24:19.047Z,10.78
2023-10-28T04:25:19.058Z,10.78
2023-10-28T04:26:18.919Z,10.75
2023-10-28T04:27:18.799Z,10.83
2023-10-28T04:28:18.716Z,10.88
2023-10-28T04:29:18.675Z,10.83
2023-10-28T04:30:18.556Z,10.80
2023-10-28T04:31:18.484Z,10.83
2023-10-28T04:32:18.413Z,10.87
2023-10-28T04:33:18.308Z,10.88
2023-10-28T04:34:18.251Z,10.87
2023-10-28T04:35:26.986Z,10.87
2023-10-28T04:36:18.066Z,10.81
2023-10-28T04:37:17.987Z,10.92
2023-10-28T04:38:17.917Z,10.77
2023-10-28T04:39:17.820Z,10.74
2023-10-28T04:40:17.736Z,10.81
2023-10-28T04:41:17.780Z,10.83
2023-10-28T04:42:17.583Z,10.85
2023-10-28T04:43:17.495Z,10.87
2023-10-28T04:44:17.436Z,10.80
2023-10-28T04:45:17.338Z,10.75
2023-10-28T04:46:17.260Z,10.88
2023-10-28T04:47:17.241Z,10.75
2023-10-28T04:48:17.088Z,10.84
2023-10-28T04:49:17.006Z,10.92
2023-10-28T04:50:16.975Z,10.78
2023-10-28T04:51:16.841Z,10.71
2023-10-28T04:52:16.760Z,10.67
2023-10-28T04:53:16.718Z,10.75
2023-10-28T04:54:16.599Z,10.56
2023-10-28T04:55:16.518Z,10.69
2023-10-28T04:56:16.482Z,10.65
2023-10-28T04:57:16.352Z,10.67
2023-10-28T04:58:16.275Z,10.65
2023-10-28T04:59:16.219Z,10.65
2023-10-28T05:00:16.109Z,10.53
2023-10-28T05:01:16.047Z,10.58
2023-10-28T05:02:15.999Z,10.63
2023-10-28T05:03:16.987Z,10.75
2023-10-28T05:04:15.781Z,10.74
2023-10-28T05:05:15.803Z,10.62
2023-10-28T05:06:15.618Z,10.67
2023-10-28T05:07:15.539Z,10.69
2023-10-28T05:08:15.465Z,10.62
2023-10-28T05:09:15.367Z,10.66
2023-10-28T05:10:15.330Z,10.63
2023-10-28T05:11:15.280Z,10.55
2023-10-28T05:12:15.150Z,10.60
2023-10-28T05:13:15.136Z,10.51
2023-10-28T05:14:15.007Z,10.53
2023-10-28T05:15:14.877Z,10.58
2023-10-28T05:16:14.835Z,10.60
2023-10-28T05:17:14.740Z,10.55
2023-10-28T05:18:14.631Z,10.56
2023-10-28T05:19:14.549Z,10.55
2023-10-28T05:20:14.521Z,10.56
2023-10-28T05:21:14.426Z,10.60
2023-10-28T05:22:14.307Z,10.59
2023-10-28T05:23:14.293Z,10.46
2023-10-28T05:24:14.142Z,10.46
2023-10-28T05:25:14.080Z,10.49
2023-10-28T05:26:14.003Z,10.40
2023-10-28T05:27:13.903Z,10.46
2023-10-28T05:28:13.817Z,10.39
2023-10-28T05:29:13.852Z,10.49
2023-10-28T05:30:13.655Z,10.39
2023-10-28T05:31:13.573Z,10.43
2023-10-28T05:32:13.536Z,10.40
2023-10-28T05:33:13.439Z,10.39
2023-10-28T05:34:13.333Z,10.33
2023-10-28T05:35:13.263Z,10.37
2023-10-28T05:36:13.163Z,10.29
2023-10-28T05:37:13.084Z,10.33
2023-10-28T05:38:13.089Z,10.36
2023-10-28T05:39:12.927Z,10.22
2023-10-28T05:40:12.852Z,10.25
2023-10-28T05:41:12.822Z,10.40
2023-10-28T05:42:12.682Z,10.34
2023-10-28T05:43:12.594Z,10.34
2023-10-28T05:44:12.562Z,10.34
2023-10-28T05:45:12.522Z,10.34
2023-10-28T05:46:12.379Z,10.37
2023-10-28T05:47:12.294Z,10.34
2023-10-28T05:48:12.183Z,10.43
2023-10-28T05:49:12.103Z,10.41
2023-10-28T05:50:12.035Z,10.40
2023-10-28T05:51:11.950Z,10.49
2023-10-28T05:52:11.862Z,10.46
2023-10-28T05:53:11.798Z,10.51
2023-10-28T05:54:11.696Z,10.58
2023-10-28T05:55:11.618Z,10.56
2023-10-28T05:56:11.557Z,10.58
2023-10-28T05:57:11.454Z,10.51
2023-10-28T05:58:11.370Z,10.55
2023-10-28T05:59:11.311Z,10.53
2023-10-28T06:00:11.292Z,10.56
2023-10-28T06:01:11.157Z,10.55
2023-10-28T06:02:11.068Z,10.55
2023-10-28T06:03:11.017Z,10.60
2023-10-28T06:04:10.920Z,10.51
2023-10-28T06:05:10.843Z,10.49
2023-10-28T06:06:10.724Z,10.44
2023-10-28T06:07:10.636Z,10.49
2023-10-28T06:08:10.560Z,10.59
2023-10-28T06:09:10.473Z,10.59
2023-10-28T06:10:10.390Z,10.53
2023-10-28T06:11:10.349Z,10.66
2023-10-28T06:12:10.230Z,10.55
2023-10-28T06:13:10.214Z,10.67
2023-10-28T06:14:10.121Z,10.59
2023-10-28T06:15:10.902Z,10.65
2023-10-28T06:16:09.913Z,10.56
2023-10-28T06:17:09.953Z,10.58
2023-10-28T06:18:09.740Z,10.63
2023-10-28T06:19:09.654Z,10.65
2023-10-28T06:20:09.668Z,10.56
2023-10-28T06:21:09.507Z,10.58
2023-10-28T06:22:09.420Z,10.51
2023-10-28T06:23:09.371Z,10.53
2023-10-28T06:24:09.245Z,10.59
2023-10-28T06:25:09.162Z,10.58
2023-10-28T06:26:09.121Z,10.62
2023-10-28T06:27:08.998Z,10.59
2023-10-28T06:28:08.918Z,10.51
2023-10-28T06:29:08.912Z,10.55
2023-10-28T06:30:08.796Z,10.53
2023-10-28T06:31:08.712Z,10.60
2023-10-28T06:32:08.641Z,10.69
2023-10-28T06:33:08.617Z,10.59
2023-10-28T06:34:08.431Z,10.67
2023-10-28T06:35:08.414Z,10.56
2023-10-28T06:36:08.269Z,10.71
2023-10-28T06:37:08.199Z,10.75
2023-10-28T06:38:08.113Z,10.66
2023-10-28T06:39:08.025Z,10.62
2023-10-28T06:40:07.947Z,10.66
2023-10-28T06:41:07.874Z,10.75
2023-10-28T06:42:07.780Z,10.84
2023-10-28T06:43:07.699Z,10.75
2023-10-28T06:44:07.629Z,10.81
2023-10-28T06:45:07.536Z,10.88
2023-10-28T06:46:07.477Z,10.95
2023-10-28T06:47:07.430Z,11.02
2023-10-28T06:48:07.360Z,11.02
2023-10-28T06:49:07.217Z,10.99
2023-10-28T06:50:07.162Z,11.08
2023-10-28T06:51:07.047Z,11.05
2023-10-28T06:52:06.960Z,11.11
2023-10-28T06:53:06.974Z,11.17
2023-10-28T06:54:06.803Z,11.08
2023-10-28T06:55:06.717Z,11.13
2023-10-28T06:56:06.669Z,11.11
2023-10-28T06:57:06.555Z,11.17
2023-10-28T06:58:06.472Z,11.11
2023-10-28T06:59:06.495Z,11.08
2023-10-28T07:00:06.308Z,11.18
2023-10-28T07:01:06.235Z,11.23
2023-10-28T07:02:06.176Z,11.32
2023-10-28T07:03:06.140Z,11.31
2023-10-28T07:04:05.991Z,11.31
2023-10-28T07:05:05.923Z,11.34
2023-10-28T07:06:05.826Z,11.36
2023-10-28T07:07:05.748Z,11.36
2023-10-28T07:08:05.686Z,11.57
2023-10-28T07:09:05.585Z,11.68
2023-10-28T07:10:05.553Z,11.57
2023-10-28T07:11:05.428Z,11.74
2023-10-28T07:12:05.336Z,11.74
2023-10-28T07:13:05.261Z,11.86
2023-10-28T07:14:05.306Z,11.94
2023-10-28T07:15:05.099Z,12.09
2023-10-28T07:16:05.012Z,12.12
2023-10-28T07:17:05.014Z,12.24
2023-10-28T07:18:04.879Z,12.24
2023-10-28T07:19:04.768Z,12.15
2023-10-28T07:20:04.714Z,12.21
2023-10-28T07:21:04.705Z,12.18
2023-10-28T07:22:04.529Z,12.28
2023-10-28T07:23:04.541Z,12.23
2023-10-28T07:24:04.364Z,12.36
2023-10-28T07:25:04.285Z,12.45
2023-10-28T07:26:04.224Z,12.55
2023-10-28T07:27:04.126Z,12.89
2023-10-28T07:28:04.045Z,13.04
2023-10-28T07:29:03.972Z,13.15
2023-10-28T07:30:03.884Z,13.22
2023-10-28T07:31:03.825Z,13.29
2023-10-28T07:32:03.900Z,13.29
2023-10-28T07:33:03.743Z,13.22
2023-10-28T07:34:03.559Z,13.07
2023-10-28T07:35:03.547Z,12.74
2023-10-28T07:36:03.440Z,12.59
2023-10-28T07:37:03.319Z,12.42
2023-10-28T07:38:03.309Z,12.53
2023-10-28T07:39:03.157Z,12.41
2023-10-28T07:40:03.079Z,12.23
2023-10-28T07:41:03.035Z,12.19
2023-10-28T07:42:02.928Z,12.16
2023-10-28T07:43:02.838Z,12.18
2023-10-28T07:44:02.771Z,12.02
2023-10-28T07:45:02.672Z,12.03
2023-10-28T07:46:02.629Z,12.08
2023-10-28T07:47:03.431Z,12.11
2023-10-28T07:48:02.457Z,12.05
2023-10-28T07:49:02.353Z,12.08
2023-10-28T07:50:02.301Z,12.12
2023-10-28T07:51:02.193Z,12.16
2023-10-28T07:52:02.107Z,12.16
2023-10-28T07:53:02.189Z,12.26
2023-10-28T07:54:01.945Z,12.24
2023-10-28T07:55:01.868Z,12.34
2023-10-28T07:56:01.880Z,12.39
2023-10-28T07:57:01.703Z,12.48
2023-10-28T07:58:01.636Z,12.51
2023-10-28T07:59:01.563Z,12.45
2023-10-28T08:00:01.487Z,12.44
2023-10-28T08:01:01.418Z,12.52
2023-10-28T08:02:01.324Z,12.45
2023-10-28T08:03:01.262Z,12.59
2023-10-28T08:04:01.911Z,12.52
2023-10-28T08:05:01.116Z,12.45
2023-10-28T08:06:00.983Z,12.52
2023-10-28T08:07:00.905Z,12.48
2023-10-28T08:08:00.899Z,12.34
2023-10-28T08:09:00.838Z,12.31
2023-10-28T08:10:00.661Z,12.24
2023-10-28T08:11:00.628Z,12.16
2023-10-28T08:12:00.504Z,12.18
2023-10-28T08:13:00.416Z,12.16
2023-10-28T08:14:00.517Z,12.33
2023-10-28T08:15:00.312Z,12.16
2023-10-28T08:16:00.172Z,12.18
2023-10-28T08:17:00.146Z,12.13
2023-10-28T08:18:00.050Z,12.16
2023-10-28T08:18:59.950Z,12.08
2023-10-28T08:19:59.875Z,12.13
2023-10-28T08:20:59.769Z,12.06
2023-10-28T08:21:59.690Z,12.11
2023-10-28T08:22:59.633Z,12.16
2023-10-28T08:23:59.536Z,12.08
2023-10-28T08:24:59.551Z,12.21
2023-10-28T08:25:59.388Z,12.27
2023-10-28T08:26:59.376Z,12.24
2023-10-28T08:27:59.221Z,12.21
2023-10-28T08:28:59.157Z,12.18
2023-10-28T08:29:59.046Z,12.34
2023-10-28T08:30:59.008Z,12.28
2023-10-28T08:31:58.950Z,12.27
2023-10-28T08:32:58.836Z,12.27
2023-10-28T08:33:58.729Z,12.15
2023-10-28T08:34:58.683Z,12.16
2023-10-28T08:35:58.568Z,12.08
2023-10-28T08:36:58.493Z,12.12
2023-10-28T08:37:58.440Z,12.13
2023-10-28T08:38:58.326Z,12.13
2023-10-28T08:39:58.241Z,12.13
2023-10-28T08:40:58.226Z,12.23
2023-10-28T08:41:58.080Z,12.18
2023-10-28T08:42:58.001Z,12.31
2023-10-28T08:43:58.000Z,12.28
2023-10-28T08:44:57.843Z,12.31
2023-10-28T08:45:57.761Z,12.33
2023-10-28T08:46:57.839Z,12.46
2023-10-28T08:47:57.602Z,12.48
2023-10-28T08:48:57.518Z,12.55
2023-10-28T08:49:57.463Z,12.56
2023-10-28T08:50:57.354Z,12.69
2023-10-28T08:51:57.279Z,12.77
2023-10-28T08:52:58.031Z,12.81
2023-10-28T08:53:57.113Z,12.82
2023-10-28T08:54:57.036Z,12.88
2023-10-28T08:55:56.981Z,12.94
2023-10-28T08:56:56.974Z,12.96
2023-10-28T08:57:56.796Z,13.10
2023-10-28T08:58:56.754Z,13.21
2023-10-28T08:59:56.632Z,13.38
2023-10-28T09:00:58.302Z,13.53
2023-10-28T09:01:56.512Z,13.52
2023-10-28T09:02:56.451Z,13.48
2023-10-28T09:03:56.368Z,13.50
2023-10-28T09:04:56.247Z,13.44
2023-10-28T09:05:56.162Z,13.50
2023-10-28T09:06:56.070Z,13.48
2023-10-28T09:07:56.011Z,13.58
2023-10-28T09:08:55.906Z,13.70
2023-10-28T09:09:55.842Z,13.68
2023-10-28T09:10:55.798Z,13.66
2023-10-28T09:11:55.674Z,13.63
2023-10-28T09:12:55.701Z,13.68
2023-10-28T09:13:55.515Z,13.76
2023-10-28T09:14:55.429Z,13.77
2023-10-28T09:15:55.362Z,13.86
2023-10-28T09:16:55.290Z,13.87
2023-10-28T09:17:55.241Z,13.89
2023-10-28T09:18:55.108Z,14.02
2023-10-28T09:19:55.052Z,14.01
2023-10-28T09:20:54.956Z,14.09
2023-10-28T09:21:54.870Z,14.17
2023-10-28T09:22:54.828Z,14.21
2023-10-28T09:23:54.751Z,14.38
2023-10-28T09:24:54.630Z,14.44
2023-10-28T09:25:54.573Z,14.49
2023-10-28T09:26:54.471Z,14.85
2023-10-28T09:27:54.386Z,14.88
2023-10-28T09:28:54.422Z,15.10
2023-10-28T09:29:54.228Z,15.15
2023-10-28T09:30:54.157Z,15.16
2023-10-28T09:31:54.105Z,15.31
2023-10-28T09:32:54.055Z,15.45
2023-10-28T09:33:54.038Z,15.67
2023-10-28T09:34:53.877Z,15.78
2023-10-28T09:35:53.751Z,15.89
2023-10-28T09:36:53.673Z,15.96
2023-10-28T09:37:53.617Z,15.94
2023-10-28T09:38:53.543Z,15.79
2023-10-28T09:39:53.437Z,15.79
2023-10-28T09:40:53.371Z,15.70
2023-10-28T09:41:53.276Z,15.51
2023-10-28T09:42:53.209Z,15.63
2023-10-28T09:43:53.130Z,15.55
2023-10-28T09:44:53.041Z,15.53
2023-10-28T09:45:52.977Z,15.55
2023-10-28T09:46:53.043Z,15.35
2023-10-28T09:47:52.857Z,15.28
2023-10-28T09:48:52.740Z,15.20
2023-10-28T09:49:52.665Z,15.18
2023-10-28T09:50:52.566Z,15.28
2023-10-28T09:51:52.481Z,15.52
2023-10-28T09:52:52.423Z,15.49
2023-10-28T09:53:52.324Z,15.59
2023-10-28T09:54:52.250Z,15.75
2023-10-28T09:55:52.179Z,15.73
2023-10-28T09:56:52.093Z,15.81
2023-10-28T09:57:52.014Z,15.55
2023-10-28T09:58:51.972Z,15.45
2023-10-28T09:59:51.853Z,15.60
2023-10-28T10:00:51.796Z,15.82
2023-10-28T10:01:51.691Z,15.86
2023-10-28T10:02:51.629Z,15.85
2023-10-28T10:03:51.579Z,16.03
2023-10-28T10:04:51.460Z,16.10
2023-10-28T10:05:51.375Z,16.15
2023-10-28T10:06:51.300Z,16.35
2023-10-28T10:07:51.220Z,16.44
2023-10-28T10:08:51.161Z,16.55
2023-10-28T10:09:51.062Z,16.71
2023-10-28T10:10:50.982Z,16.89
2023-10-28T10:11:50.902Z,16.85
2023-10-28T10:12:50.824Z,17.07
2023-10-28T10:13:50.743Z,17.00
2023-10-28T10:14:50.665Z,16.80
2023-10-28T10:15:50.597Z,16.67
2023-10-28T10:16:50.523Z,16.73
2023-10-28T10:17:50.460Z,16.85
2023-10-28T10:18:50.359Z,16.81
2023-10-28T10:19:50.270Z,16.52
2023-10-28T10:20:50.222Z,16.35
2023-10-28T10:21:50.114Z,16.33
2023-10-28T10:22:50.037Z,16.29
2023-10-28T10:23:49.955Z,16.35
2023-10-28T10:24:49.881Z,16.41
2023-10-28T10:25:49.799Z,16.63
2023-10-28T10:26:49.722Z,16.74
2023-10-28T10:27:49.643Z,16.93
2023-10-28T10:28:49.567Z,17.14
2023-10-28T10:29:49.487Z,17.13
2023-10-28T10:30:49.412Z,17.21
2023-10-28T10:31:49.332Z,17.44
2023-10-28T10:32:49.296Z,17.48
2023-10-28T10:33:49.181Z,17.54
2023-10-28T10:34:49.126Z,17.48
2023-10-28T10:35:49.019Z,17.66
2023-10-28T10:36:49.161Z,17.66
2023-10-28T10:37:48.865Z,17.64
2023-10-28T10:38:48.786Z,17.76
2023-10-28T10:39:48.882Z,17.87
2023-10-28T10:40:48.702Z,17.88
2023-10-28T10:41:48.552Z,17.91
2023-10-28T10:42:48.476Z,18.09
2023-10-28T10:43:48.394Z,18.09
2023-10-28T10:44:48.328Z,17.85
2023-10-28T10:45:48.290Z,17.54
2023-10-28T10:46:48.162Z,17.14
2023-10-28T10:47:48.165Z,17.28
2023-10-28T10:48:48.509Z,17.28
2023-10-28T10:49:48.053Z,17.29
2023-10-28T10:50:47.857Z,17.29
2023-10-28T10:51:47.773Z,17.29
2023-10-28T10:52:47.692Z,17.55
2023-10-28T10:53:47.630Z,17.39
2023-10-28T10:54:47.541Z,17.39
2023-10-28T10:55:47.470Z,17.17
2023-10-28T10:56:47.386Z,16.92
2023-10-28T10:57:47.307Z,16.85
2023-10-28T10:58:47.229Z,16.99
2023-10-28T10:59:47.400Z,16.96
2023-10-28T11:00:47.068Z,17.05
2023-10-28T11:01:47.001Z,17.00
2023-10-28T11:02:47.066Z,16.95
2023-10-28T11:03:46.935Z,16.82
2023-10-28T11:04:46.768Z,16.81
2023-10-28T11:05:46.688Z,16.74
2023-10-28T11:06:46.601Z,16.84
2023-10-28T11:07:46.527Z,16.74
2023-10-28T11:08:46.447Z,16.77
2023-10-28T11:09:46.513Z,16.62
2023-10-28T11:10:46.327Z,16.48
2023-10-28T11:11:46.217Z,16.41
2023-10-28T11:12:46.134Z,16.47
2023-10-28T11:13:46.056Z,16.38
2023-10-28T11:14:45.978Z,16.38
2023-10-28T11:15:45.966Z,16.37
2023-10-28T11:16:45.821Z,16.35
2023-10-28T11:17:45.785Z,16.33
2023-10-28T11:18:45.666Z,16.35
2023-10-28T11:19:45.766Z,16.34
2023-10-28T11:20:45.518Z,16.41
2023-10-28T11:21:45.434Z,16.26
2023-10-28T11:22:45.355Z,16.33
2023-10-28T11:23:45.276Z,16.35
2023-10-28T11:24:45.197Z,16.40
2023-10-28T11:25:45.121Z,16.42
2023-10-28T11:26:45.040Z,16.41
2023-10-28T11:27:44.962Z,16.42
2023-10-28T11:28:44.884Z,16.15
2023-10-28T11:29:44.902Z,16.15
2023-10-28T11:30:44.728Z,16.04
2023-10-28T11:31:44.695Z,16.14
2023-10-28T11:32:44.586Z,16.06
2023-10-28T11:33:44.523Z,16.10
2023-10-28T11:34:44.415Z,16.07
2023-10-28T11:35:44.336Z,16.03
2023-10-28T11:36:44.262Z,16.00
2023-10-28T11:37:44.182Z,15.96
2023-10-28T11:38:44.101Z,16.07
2023-10-28T11:39:44.022Z,16.14
2023-10-28T11:40:43.941Z,16.14
2023-10-28T11:41:43.868Z,16.25
2023-10-28T11:42:43.785Z,16.20
2023-10-28T11:43:43.711Z,16.26
2023-10-28T11:44:43.628Z,16.15
2023-10-28T11:45:43.607Z,16.22
2023-10-28T11:46:43.479Z,16.20
2023-10-28T11:47:43.413Z,16.20
2023-10-28T11:48:43.316Z,16.26
2023-10-28T11:49:43.238Z,16.27
2023-10-28T11:50:43.161Z,16.16
2023-10-28T11:51:43.084Z,16.20
2023-10-28T11:52:43.006Z,16.27
2023-10-28T11:53:42.925Z,16.26
2023-10-28T11:54:42.846Z,16.27
2023-10-28T11:55:42.770Z,16.29
2023-10-28T11:56:42.767Z,16.35
2023-10-28T11:57:42.612Z,16.30
2023-10-28T11:58:42.532Z,16.26
2023-10-28T11:59:42.454Z,16.33
2023-10-28T12:00:42.375Z,16.29
2023-10-28T12:01:42.297Z,16.15
2023-10-28T12:02:42.265Z,16.22
2023-10-28T12:03:42.177Z,16.18
2023-10-28T12:04:42.055Z,16.26
2023-10-28T12:05:41.987Z,16.27
2023-10-28T12:06:41.902Z,16.34
2023-10-28T12:07:44.041Z,16.34
2023-10-28T12:08:41.757Z,16.38
2023-10-28T12:09:41.669Z,16.44
2023-10-28T12:10:41.585Z,16.33
2023-10-28T12:11:41.513Z,16.37
2023-10-28T12:12:41.437Z,16.41
2023-10-28T12:13:41.358Z,16.29
2023-10-28T12:14:42.409Z,16.35
2023-10-28T12:15:41.198Z,16.37
2023-10-28T12:16:41.136Z,16.35
2023-10-28T12:17:41.135Z,16.50
2023-10-28T12:18:40.961Z,16.42
2023-10-28T12:19:40.884Z,16.50
2023-10-28T12:20:40.807Z,16.47
2023-10-28T12:21:40.727Z,16.47
2023-10-28T12:22:40.649Z,16.37
2023-10-28T12:23:40.570Z,16.34
2023-10-28T12:24:40.501Z,16.38
2023-10-28T12:25:40.414Z,16.38
2023-10-28T12:26:40.336Z,16.40
2023-10-28T12:27:40.257Z,16.40
2023-10-28T12:28:40.194Z,16.40
2023-10-28T12:29:40.101Z,16.35
2023-10-28T12:30:40.021Z,16.30
2023-10-28T12:31:40.013Z,16.34
2023-10-28T12:32:39.934Z,16.41
2023-10-28T12:33:39.787Z,16.44
2023-10-28T12:34:39.707Z,16.35
2023-10-28T12:35:39.632Z,16.34
2023-10-28T12:36:39.551Z,16.23
2023-10-28T12:37:39.472Z,16.38
2023-10-28T12:38:39.402Z,16.37
2023-10-28T12:39:39.317Z,16.30
2023-10-28T12:40:39.240Z,16.29
2023-10-28T12:41:39.188Z,16.35
2023-10-28T12:42:39.096Z,16.18
2023-10-28T12:43:39.007Z,16.38
2023-10-28T12:44:38.922Z,16.44
2023-10-28T12:45:38.843Z,16.44
2023-10-28T12:46:38.765Z,16.50
2023-10-28T12:47:38.725Z,16.52
2023-10-28T12:48:38.616Z,16.52
2023-10-28T12:49:38.533Z,16.50
2023-10-28T12:50:38.450Z,16.55
2023-10-28T12:51:40.331Z,16.52